Time;durP1;ratioP1;P1;durP2;ratioP2;P2;SDS_P1;SDS_P2;PMS_P1;PMS_P2;Temp;Humidity;BMP_temperature;BMP_pressure;BME280_temperature;BME280_humidity;BME280_pressure;Samples;Min_cycle;Max_cycle;Signal;HPM_P1;HPM_P2
2022/09/21 00:02:03;;;;;;;1.20;1.10;;;;;;;9.85;65.88;96502.94;5094587;28;20054;-66
2022/09/21 00:04:30;;;;;;;2.05;1.48;;;;;;;9.76;65.40;96502.41;5094448;28;20106;-66
2022/09/21 00:06:57;;;;;;;1.63;1.40;;;;;;;9.75;65.26;96506.78;5094430;28;20141;-66
2022/09/21 00:09:26;;;;;;;1.48;1.20;;;;;;;9.65;65.36;96497.56;5094209;28;20127;-66
2022/09/21 00:11:53;;;;;;;2.58;1.25;;;;;;;9.62;65.38;96495.91;5094380;28;20048;-67
2022/09/21 00:14:20;;;;;;;1.40;1.30;;;;;;;9.59;64.86;96489.06;5094146;28;20087;-66
2022/09/21 00:16:47;;;;;;;3.15;1.35;;;;;;;9.57;65.13;96500.47;5094216;28;20139;-65
2022/09/21 00:19:16;;;;;;;1.80;1.50;;;;;;;9.45;64.55;96502.56;5094122;28;20051;-66
2022/09/21 00:21:43;;;;;;;3.90;1.30;;;;;;;9.45;65.57;96497.34;5094297;28;20051;-66
2022/09/21 00:24:11;;;;;;;1.20;1.10;;;;;;;9.46;65.83;96503.44;5094434;28;20421;-66
2022/09/21 00:26:39;;;;;;;1.40;1.30;;;;;;;9.47;65.15;96499.91;5093975;28;20433;-66
2022/09/21 00:29:07;;;;;;;1.30;1.20;;;;;;;9.39;65.17;96497.56;5094099;28;20040;-66
2022/09/21 00:31:34;;;;;;;1.50;1.40;;;;;;;9.28;65.94;96487.50;5093932;28;20464;-67
2022/09/21 00:34:02;;;;;;;1.85;1.20;;;;;;;9.27;66.02;96488.38;5093808;28;20509;-66
2022/09/21 00:36:30;;;;;;;1.60;1.30;;;;;;;9.25;65.53;96482.38;5093824;28;20541;-67
2022/09/21 00:38:59;;;;;;;1.40;1.20;;;;;;;9.15;64.92;96480.97;5093778;28;20079;-66
2022/09/21 00:41:27;;;;;;;1.38;1.20;;;;;;;9.12;65.20;96478.47;5094002;28;20087;-66
2022/09/21 00:44:34;;;;;;;1.58;1.45;;;;;;;9.08;65.77;96469.88;5093721;28;20087;-66
2022/09/21 00:47:08;;;;;;;3.30;1.30;;;;;;;9.03;66.02;96474.41;5089376;28;20051;-65
2022/09/21 00:49:36;;;;;;;1.65;1.27;;;;;;;8.96;65.40;96472.00;5093729;28;20102;-66
2022/09/21 00:52:05;;;;;;;1.38;1.27;;;;;;;8.94;65.72;96472.97;5093530;28;20184;-66
2022/09/21 00:54:37;;;;;;;3.15;1.52;;;;;;;8.93;66.09;96471.22;5093812;28;20040;-66
2022/09/21 00:57:06;;;;;;;1.35;1.25;;;;;;;8.90;66.38;96471.31;5093548;28;20044;-66
2022/09/21 00:59:37;;;;;;;5.18;1.45;;;;;;;8.85;66.50;96463.66;5093476;28;20405;-65
2022/09/21 01:02:06;;;;;;;3.42;1.30;;;;;;;8.81;66.36;96467.25;5093450;28;20048;-65
2022/09/21 01:04:34;;;;;;;2.55;1.40;;;;;;;8.64;64.88;96460.81;5093305;28;20044;-65
2022/09/21 01:07:05;;;;;;;1.55;1.45;;;;;;;8.51;65.62;96464.69;5093557;28;20101;-66
2022/09/21 01:09:33;;;;;;;1.98;1.40;;;;;;;8.38;65.77;96465.06;5093421;28;20472;-66
2022/09/21 01:12:15;;;;;;;1.20;1.10;;;;;;;8.29;65.94;96475.78;5093361;28;20139;-66
2022/09/21 01:15:05;;;;;;;1.30;1.20;;;;;;;8.20;66.85;96476.91;5093179;28;20055;-66
2022/09/21 01:17:41;;;;;;;3.40;1.75;;;;;;;8.16;67.24;96481.34;5093389;28;20402;-66
2022/09/21 01:20:29;;;;;;;1.58;1.48;;;;;;;8.14;67.50;96477.94;5093350;28;20044;-66
2022/09/21 01:23:17;;;;;;;3.92;1.42;;;;;;;8.16;67.49;96468.31;5093186;28;20089;-67
2022/09/21 01:26:00;;;;;;;1.80;1.55;;;;;;;8.05;67.72;96473.00;5093189;28;20044;-66
2022/09/21 01:28:39;;;;;;;1.60;1.50;;;;;;;8.04;68.14;96472.13;5093018;28;20391;-67
2022/09/21 01:31:14;;;;;;;1.50;1.40;;;;;;;7.90;67.89;96467.34;5093125;28;20123;-66
2022/09/21 01:33:46;;;;;;;2.10;1.83;;;;;;;7.94;68.22;96479.38;5093105;28;20105;-67
2022/09/21 01:36:17;;;;;;;4.00;1.48;;;;;;;7.86;67.99;96468.31;5093233;28;20079;-66
2022/09/21 01:38:48;;;;;;;1.95;1.40;;;;;;;7.88;68.70;96473.47;5093042;28;20105;-67
2022/09/21 01:41:19;;;;;;;1.27;1.17;;;;;;;7.84;68.60;96472.72;5093122;28;20044;-66
2022/09/21 01:43:51;;;;;;;1.30;1.20;;;;;;;7.78;69.26;96471.13;5093102;28;20050;-66
2022/09/21 01:46:22;;;;;;;1.90;1.63;;;;;;;7.75;69.25;96484.25;5093147;28;20080;-67
2022/09/21 01:48:53;;;;;;;1.70;1.60;;;;;;;7.81;69.05;96476.25;5093058;28;20553;-66
2022/09/21 01:51:22;;;;;;;1.83;1.73;;;;;;;7.86;69.98;96476.13;5092936;28;20044;-67
2022/09/21 01:53:53;;;;;;;1.60;1.40;;;;;;;7.91;70.42;96470.78;5092902;28;20410;-66
2022/09/21 01:56:24;;;;;;;1.48;1.38;;;;;;;7.94;70.14;96457.66;5093167;28;20544;-66
2022/09/21 01:59:01;;;;;;;1.73;1.60;;;;;;;8.02;70.21;96467.88;5095739;28;20048;-66
2022/09/21 02:01:34;;;;;;;1.77;1.67;;;;;;;8.00;70.60;96474.88;5096802;28;20048;-66
2022/09/21 02:04:08;;;;;;;1.70;1.60;;;;;;;7.91;70.88;96466.44;5096728;28;20048;-67
2022/09/21 02:06:38;;;;;;;1.90;1.42;;;;;;;7.92;70.92;96470.72;5096683;28;20052;-66
2022/09/21 02:09:06;;;;;;;2.42;1.42;;;;;;;7.94;71.19;96474.16;5096634;28;20044;-67
2022/09/21 02:11:33;;;;;;;1.60;1.50;;;;;;;7.93;71.67;96475.06;5096707;28;20113;-67
2022/09/21 02:14:00;;;;;;;3.10;1.90;;;;;;;7.95;71.04;96475.84;5096346;28;20044;-67
2022/09/21 02:16:38;;;;;;;1.80;1.70;;;;;;;7.99;70.32;96470.56;5096650;28;20480;-66
2022/09/21 02:19:14;;;;;;;3.33;1.50;;;;;;;8.07;71.08;96474.66;5096452;28;20048;-67
2022/09/21 02:21:59;;;;;;;1.65;1.55;;;;;;;8.14;72.08;96472.72;5096365;28;20408;-66
2022/09/21 02:24:36;;;;;;;1.83;1.58;;;;;;;8.18;71.48;96469.13;5096445;28;20105;-67
2022/09/21 02:27:06;;;;;;;3.25;1.63;;;;;;;8.19;72.37;96475.22;5096384;28;20093;-66
2022/09/21 02:29:45;;;;;;;2.42;2.22;;;;;;;8.22;71.35;96480.31;5096365;28;20086;-67
2022/09/21 02:32:23;;;;;;;1.60;1.50;;;;;;;8.21;71.43;96478.59;5096267;28;20052;-67
2022/09/21 02:34:57;;;;;;;3.80;1.50;;;;;;;8.23;71.49;96482.03;5096172;28;20044;-65
2022/09/21 02:37:34;;;;;;;1.83;1.73;;;;;;;8.24;71.30;96478.50;5096139;28;20119;-65
2022/09/21 02:40:08;;;;;;;2.42;1.77;;;;;;;8.35;71.57;96475.59;5096403;28;20567;-67
2022/09/21 02:42:41;;;;;;;2.20;1.50;;;;;;;8.41;72.10;96472.81;5096218;28;20105;-67
2022/09/21 02:45:11;;;;;;;2.05;1.80;;;;;;;8.46;71.93;96467.47;5096081;28;20044;-67
2022/09/21 02:47:46;;;;;;;1.70;1.60;;;;;;;8.52;71.97;96471.63;5096008;28;20448;-66
2022/09/21 02:50:20;;;;;;;1.70;1.60;;;;;;;8.57;71.79;96468.00;5095919;28;20048;-67
2022/09/21 02:52:47;;;;;;;3.35;1.75;;;;;;;8.59;71.55;96462.72;5095790;28;20055;-66
2022/09/21 02:55:16;;;;;;;2.17;1.70;;;;;;;8.61;71.74;96460.91;5095685;28;20051;-67
2022/09/21 02:57:46;;;;;;;1.92;1.70;;;;;;;8.57;71.64;96460.19;5095707;28;20478;-67
2022/09/21 03:00:15;;;;;;;1.90;1.80;;;;;;;8.55;71.63;96467.19;5095647;28;20052;-66
2022/09/21 03:02:45;;;;;;;1.90;1.80;;;;;;;8.55;71.86;96464.56;5095731;28;20048;-67
2022/09/21 03:05:14;;;;;;;1.80;1.70;;;;;;;8.61;71.97;96476.56;5095910;28;20102;-66
2022/09/21 03:07:41;;;;;;;2.65;1.63;;;;;;;8.62;72.31;96475.69;5095523;28;20048;-66
2022/09/21 03:10:09;;;;;;;1.70;1.60;;;;;;;8.62;72.43;96469.59;5094695;28;20079;-67
2022/09/21 03:12:37;;;;;;;2.25;2.00;;;;;;;8.64;72.06;96473.03;5095557;28;20044;-66
2022/09/21 03:15:05;;;;;;;1.73;1.63;;;;;;;8.65;72.51;96466.91;5095192;28;20079;-66
2022/09/21 03:17:32;;;;;;;2.03;1.40;;;;;;;8.64;71.78;96479.06;5095418;28;20044;-67
2022/09/21 03:20:01;;;;;;;1.75;1.65;;;;;;;8.63;71.94;96473.91;5095457;28;20058;-67
2022/09/21 03:22:28;;;;;;;2.55;2.20;;;;;;;8.64;72.47;96471.25;5095341;28;20048;-66
2022/09/21 03:24:56;;;;;;;1.73;1.63;;;;;;;8.63;72.27;96476.50;5095155;28;20134;-66
2022/09/21 03:27:24;;;;;;;1.95;1.75;;;;;;;8.60;72.66;96467.03;5095095;28;20040;-67
2022/09/21 03:29:51;;;;;;;2.17;1.73;;;;;;;8.54;73.18;96468.09;5095181;28;20550;-67
2022/09/21 03:32:18;;;;;;;2.03;1.83;;;;;;;8.59;73.03;96474.03;5095168;28;20078;-66
2022/09/21 03:34:45;;;;;;;3.22;1.58;;;;;;;8.60;73.04;96472.25;5094914;28;20122;-67
2022/09/21 03:37:14;;;;;;;2.20;1.80;;;;;;;8.58;72.44;96472.31;5095168;28;20044;-66
2022/09/21 03:39:41;;;;;;;1.83;1.73;;;;;;;8.52;73.17;96476.84;5094744;28;20052;-65
2022/09/21 03:42:08;;;;;;;4.00;1.90;;;;;;;8.54;73.89;96475.03;5094887;28;20059;-66
2022/09/21 03:44:37;;;;;;;1.70;1.55;;;;;;;8.58;73.48;96481.91;5094696;28;20051;-66
2022/09/21 03:47:05;;;;;;;1.60;1.50;;;;;;;8.52;72.97;96480.28;5094720;28;20048;-66
2022/09/21 03:49:33;;;;;;;1.63;1.45;;;;;;;8.47;73.01;96479.59;5094751;28;20051;-66
2022/09/21 03:52:00;;;;;;;2.22;1.55;;;;;;;8.48;73.20;96489.09;5094816;28;20052;-66
2022/09/21 03:54:28;;;;;;;1.70;1.60;;;;;;;8.50;73.56;96489.06;5094769;28;20476;-67
2022/09/21 03:56:55;;;;;;;1.67;1.58;;;;;;;8.49;73.33;96496.00;5094970;28;20122;-67
2022/09/21 03:59:22;;;;;;;2.40;1.40;;;;;;;8.48;72.79;96491.72;5094545;28;20412;-67
2022/09/21 04:01:50;;;;;;;1.63;1.52;;;;;;;8.43;72.80;96493.63;5094572;28;20471;-67
2022/09/21 04:04:17;;;;;;;2.05;1.83;;;;;;;8.42;72.66;96497.97;5094471;28;20493;-67
2022/09/21 04:06:45;;;;;;;1.63;1.50;;;;;;;8.40;72.03;96506.75;5094385;28;20044;-66
2022/09/21 04:09:12;;;;;;;2.22;1.80;;;;;;;8.36;72.40;96511.19;5094509;28;20048;-67
2022/09/21 04:11:41;;;;;;;1.83;1.73;;;;;;;8.29;72.56;96510.53;5094190;28;20078;-66
2022/09/21 04:14:09;;;;;;;2.17;1.98;;;;;;;8.26;71.97;96509.75;5094003;28;20044;-67
2022/09/21 04:16:36;;;;;;;2.03;1.65;;;;;;;8.12;71.74;96505.78;5094169;28;20482;-67
2022/09/21 04:19:03;;;;;;;1.98;1.38;;;;;;;8.06;71.95;96509.41;5094185;28;20136;-67
2022/09/21 04:21:31;;;;;;;2.45;1.90;;;;;;;8.03;72.39;96508.63;5093197;28;20055;-66
2022/09/21 04:23:59;;;;;;;1.67;1.55;;;;;;;8.02;72.11;96499.13;5094076;28;20044;-68
2022/09/21 04:26:27;;;;;;;1.73;1.50;;;;;;;7.96;71.51;96500.16;5093922;28;20156;-66
2022/09/21 04:28:56;;;;;;;4.75;1.73;;;;;;;7.95;72.67;96501.91;5094015;28;20391;-67
2022/09/21 04:31:25;;;;;;;4.80;1.73;;;;;;;7.97;72.59;96501.84;5093900;28;20040;-67
2022/09/21 04:33:54;;;;;;;2.92;1.40;;;;;;;7.98;72.05;96506.19;5094025;28;20055;-66
2022/09/21 04:36:22;;;;;;;1.55;1.33;;;;;;;7.97;72.15;96504.47;5094143;28;20071;-66
2022/09/21 04:38:50;;;;;;;1.77;1.67;;;;;;;8.07;72.04;96503.31;5093691;28;20082;-66
2022/09/21 04:41:18;;;;;;;2.83;1.60;;;;;;;8.19;72.17;96502.09;5094102;28;20048;-67
2022/09/21 04:43:46;;;;;;;7.72;1.70;;;;;;;8.28;72.16;96498.38;5093747;28;20040;-67
2022/09/21 04:46:17;;;;;;;1.75;1.40;;;;;;;8.42;71.46;96503.19;5093783;28;20075;-67
2022/09/21 04:48:44;;;;;;;;;;;;;;;8.67;71.68;96499.00;5094099;28;20121;-66
2022/09/21 04:51:12;;;;;;;1.92;1.38;;;;;;;9.19;70.70;96503.44;5093562;28;20347;-67
2022/09/21 04:53:40;;;;;;;4.03;1.20;;;;;;;9.91;68.40;96499.28;5093690;28;20048;-67
2022/09/21 04:56:09;;;;;;;1.50;1.25;;;;;;;10.68;66.36;96499.94;5093877;28;20478;-67
2022/09/21 04:58:36;;;;;;;1.70;1.00;;;;;;;11.67;63.04;96498.56;5093656;28;20060;-67
2022/09/21 05:01:05;;;;;;;2.08;1.20;;;;;;;12.48;59.60;96501.13;5093380;28;20559;-67
2022/09/21 05:03:34;;;;;;;2.30;1.67;;;;;;;13.42;57.39;96501.94;5093396;28;20466;-67
2022/09/21 05:06:01;;;;;;;1.63;0.98;;;;;;;14.37;53.67;96499.75;5093718;28;20079;-67
2022/09/21 05:11:17;;;;;;;7.68;1.00;;;;;;;16.16;48.49;96503.72;5093334;28;20055;-68
2022/09/21 05:13:44;;;;;;;1.33;0.90;;;;;;;16.90;47.21;96500.03;5093012;28;20139;-67
2022/09/21 05:16:12;;;;;;;4.82;1.00;;;;;;;17.63;44.82;96497.13;5093203;28;20076;-68
2022/09/21 05:18:41;;;;;;;2.40;1.08;;;;;;;18.51;43.66;96498.19;5093281;28;20044;-67
2022/09/21 05:21:09;;;;;;;1.27;0.80;;;;;;;19.37;41.12;96496.53;5093213;28;20055;-67
2022/09/21 05:23:37;;;;;;;2.35;0.93;;;;;;;20.29;39.27;96493.13;5093383;28;20482;-67
2022/09/21 05:26:04;;;;;;;3.80;0.60;;;;;;;20.88;38.04;96490.28;5093290;28;20055;-67
2022/09/21 05:28:32;;;;;;;3.45;0.90;;;;;;;21.48;37.62;96491.69;5093188;28;20109;-67
2022/09/21 05:31:04;;;;;;;2.40;1.08;;;;;;;22.18;36.55;96493.84;5093085;28;20142;-67
2022/09/21 05:33:35;;;;;;;1.88;0.70;;;;;;;22.85;35.12;96495.25;5095581;28;20505;-67
2022/09/21 05:36:11;;;;;;;1.52;0.73;;;;;;;23.32;33.46;96491.09;5097302;28;20059;-67
2022/09/21 05:38:39;;;;;;;1.00;0.80;;;;;;;23.90;31.91;96484.03;5097524;28;20048;-67
2022/09/21 05:41:07;;;;;;;4.80;0.88;;;;;;;24.32;30.38;96482.81;5097502;28;20083;-67
2022/09/21 05:43:34;;;;;;;1.85;0.82;;;;;;;24.53;29.86;96487.09;5097266;28;20151;-67
2022/09/21 05:46:06;;;;;;;0.98;0.80;;;;;;;24.82;30.52;96487.94;5097480;28;20083;-67
2022/09/21 05:48:40;;;;;;;3.30;0.90;;;;;;;25.07;30.62;96481.06;5097052;28;20040;-67
2022/09/21 05:51:21;;;;;;;3.63;0.90;;;;;;;25.63;28.70;96474.72;5097050;28;20517;-66
2022/09/21 05:53:59;;;;;;;0.55;0.55;;;;;;;26.15;28.78;96480.28;5096997;28;20048;-67
2022/09/21 05:56:40;;;;;;;0.82;0.60;;;;;;;26.23;28.08;96483.00;5097080;28;20418;-67
2022/09/21 05:59:24;;;;;;;1.20;0.60;;;;;;;26.51;27.30;96485.50;5096797;28;20064;-67
2022/09/21 06:02:00;;;;;;;0.60;0.60;;;;;;;26.80;26.25;96478.09;5096865;28;20478;-66
2022/09/21 06:04:28;;;;;;;2.13;0.65;;;;;;;26.74;27.62;96476.91;5096816;28;20093;-67
2022/09/21 06:06:56;;;;;;;1.13;0.70;;;;;;;27.11;26.36;96486.44;5096831;28;20044;-67
2022/09/21 06:09:24;;;;;;;1.52;0.93;;;;;;;27.56;25.57;96485.28;5096695;28;20052;-67
2022/09/21 06:11:52;;;;;;;1.95;0.70;;;;;;;27.99;24.01;96485.97;5096642;28;20146;-67
2022/09/21 06:14:23;;;;;;;1.55;0.70;;;;;;;28.10;25.43;96471.34;5096513;28;20127;-67
2022/09/21 06:16:52;;;;;;;0.60;0.60;;;;;;;27.48;23.89;96480.78;5096586;28;20079;-67
2022/09/21 06:19:19;;;;;;;1.15;1.02;;;;;;;27.39;25.96;96485.28;5096461;28;20482;-67
2022/09/21 06:21:46;;;;;;;0.93;0.50;;;;;;;27.60;25.56;96482.09;5096582;28;20131;-67
2022/09/21 06:24:15;;;;;;;2.55;0.60;;;;;;;27.55;26.11;96483.63;5096483;28;20052;-67
2022/09/21 06:26:42;;;;;;;1.23;0.80;;;;;;;27.57;26.67;96485.13;5096437;28;20097;-67
2022/09/21 06:29:09;;;;;;;0.85;0.60;;;;;;;27.58;24.88;96488.66;5096472;28;20055;-68
2022/09/21 06:31:36;;;;;;;0.85;0.50;;;;;;;27.44;25.24;96487.47;5096479;28;20494;-67
2022/09/21 06:34:04;;;;;;;1.00;0.52;;;;;;;27.33;24.89;96496.69;5096450;28;20076;-67
2022/09/21 06:36:31;;;;;;;2.92;0.60;;;;;;;26.86;25.04;96490.84;5096250;28;20437;-67
2022/09/21 06:38:58;;;;;;;0.30;0.30;;;;;;;26.61;26.29;96490.78;5096157;28;20048;-66
2022/09/21 06:41:27;;;;;;;1.00;0.50;;;;;;;26.51;24.62;96487.38;5096016;28;20138;-67
2022/09/21 06:43:55;;;;;;;0.88;0.50;;;;;;;25.94;25.66;96490.34;5095368;28;20048;-67
2022/09/21 06:46:23;;;;;;;0.82;0.57;;;;;;;25.21;25.75;96487.72;5095822;28;20093;-66
2022/09/21 06:48:50;;;;;;;0.30;0.30;;;;;;;24.98;26.47;96485.47;5095924;28;20127;-67
2022/09/21 06:51:19;;;;;;;0.82;0.55;;;;;;;24.72;27.54;96488.81;5096011;28;20048;-66
2022/09/21 06:53:46;;;;;;;1.05;0.45;;;;;;;24.44;26.65;96486.16;5095918;28;20070;-66
2022/09/21 06:56:14;;;;;;;0.88;0.60;;;;;;;24.09;29.69;96479.66;5095931;28;20123;-66
2022/09/21 06:58:43;;;;;;;0.60;0.60;;;;;;;23.88;28.45;96488.69;5095989;28;20086;-67
2022/09/21 07:01:11;;;;;;;0.45;0.43;;;;;;;23.78;28.23;96486.03;5095740;28;20054;-67
2022/09/21 07:03:40;;;;;;;1.85;0.57;;;;;;;23.35;29.30;96480.97;5095653;28;20465;-67
2022/09/21 07:06:10;;;;;;;4.20;0.70;;;;;;;23.17;30.73;96485.31;5095579;28;20048;-66
2022/09/21 07:08:38;;;;;;;1.38;0.75;;;;;;;23.15;28.48;96485.44;5095724;28;20055;-67
2022/09/21 07:11:06;;;;;;;0.55;0.55;;;;;;;23.15;28.76;96481.97;5095694;28;20040;-66
2022/09/21 07:13:35;;;;;;;1.00;0.60;;;;;;;22.92;29.31;96490.19;5095288;28;20044;-66
2022/09/21 07:16:06;;;;;;;0.40;0.40;;;;;;;22.86;28.94;96483.59;5095648;28;20204;-67
2022/09/21 07:18:33;;;;;;;0.77;0.77;;;;;;;22.87;29.56;96482.59;5095287;28;20062;-66
2022/09/21 07:21:04;;;;;;;1.35;0.68;;;;;;;22.88;30.09;96486.13;5095263;28;20094;-66
2022/09/21 07:23:31;;;;;;;0.50;0.43;;;;;;;23.06;28.10;96483.63;5095289;28;20047;-66
2022/09/21 07:26:02;;;;;;;0.45;0.45;;;;;;;22.85;28.45;96479.25;5095501;28;20101;-67
2022/09/21 07:28:29;;;;;;;1.17;0.52;;;;;;;22.55;31.26;96487.13;5095341;28;20048;-66
2022/09/21 07:30:57;;;;;;;2.42;0.50;;;;;;;22.41;29.12;96479.50;5095394;28;20051;-66
2022/09/21 07:33:26;;;;;;;1.02;0.65;;;;;;;22.44;28.63;96479.22;5095110;28;20076;-66
2022/09/21 07:35:55;;;;;;;1.75;0.40;;;;;;;22.42;29.34;96490.03;5095045;28;20047;-66
2022/09/21 07:38:23;;;;;;;1.70;0.57;;;;;;;22.47;30.04;96487.81;5095189;28;20048;-66
2022/09/21 07:40:50;;;;;;;0.60;0.50;;;;;;;22.74;30.59;96485.53;5094900;28;20051;-66
2022/09/21 07:43:17;;;;;;;1.15;0.60;;;;;;;22.74;30.78;96490.00;5095001;28;20425;-66
2022/09/21 07:45:52;;;;;;;1.88;0.70;;;;;;;22.72;29.86;96488.34;5094774;28;20511;-66
2022/09/21 07:48:19;;;;;;;0.68;0.50;;;;;;;22.83;28.87;96486.53;5094865;28;20478;-66
2022/09/21 07:50:49;;;;;;;0.55;0.55;;;;;;;22.63;29.24;96489.13;5094840;28;20688;-66
2022/09/21 07:53:16;;;;;;;1.45;0.75;;;;;;;22.65;28.94;96478.34;5094802;28;20048;-66
2022/09/21 07:55:44;;;;;;;0.95;0.68;;;;;;;22.79;28.16;96491.28;5094306;28;20500;-66
2022/09/21 08:00:55;;;;;;;0.60;0.60;;;;;;;23.09;27.74;96492.19;5094657;28;20058;-66
2022/09/21 08:03:23;;;;;;;1.23;0.60;;;;;;;23.02;28.66;96487.56;5094923;28;20079;-66
2022/09/21 08:05:51;;;;;;;0.57;0.50;;;;;;;22.66;26.63;96480.06;5094448;28;20048;-66
2022/09/21 08:08:18;;;;;;;2.08;0.57;;;;;;;22.77;28.44;96477.25;5094430;28;20402;-66
2022/09/21 08:10:45;;;;;;;2.92;0.77;;;;;;;23.04;28.77;96486.44;5094250;28;20044;-66
2022/09/21 08:13:12;;;;;;;0.40;0.40;;;;;;;23.01;28.32;96477.88;5094245;28;20127;-66
2022/09/21 08:15:40;;;;;;;1.27;0.75;;;;;;;22.65;28.52;96473.88;5094265;28;20036;-66
2022/09/21 08:18:07;;;;;;;0.85;0.70;;;;;;;22.81;29.03;96476.00;5094083;28;20444;-66
2022/09/21 08:20:34;;;;;;;1.10;1.00;;;;;;;22.97;29.46;96480.81;5094038;28;20051;-66
2022/09/21 08:23:04;;;;;;;2.75;0.77;;;;;;;23.16;27.98;96478.31;5094150;28;20083;-66
2022/09/21 08:25:33;;;;;;;0.93;0.63;;;;;;;22.97;29.66;96475.47;5094033;28;20052;-65
2022/09/21 08:28:00;;;;;;;1.17;0.80;;;;;;;22.88;28.40;96478.13;5094269;28;20105;-65
2022/09/21 08:30:29;;;;;;;0.90;0.70;;;;;;;22.88;28.48;96480.78;5094262;28;20106;-65
2022/09/21 08:32:57;;;;;;;0.68;0.65;;;;;;;22.32;28.25;96467.81;5094015;28;20047;-66
2022/09/21 08:35:24;;;;;;;1.90;0.65;;;;;;;22.13;30.01;96473.91;5093853;28;20059;-66
2022/09/21 08:37:54;;;;;;;0.68;0.68;;;;;;;22.39;29.93;96466.31;5094031;28;20121;-66
2022/09/21 08:40:22;;;;;;;2.57;0.53;;;;;;;22.10;27.38;96451.06;5093709;28;20154;-66
2022/09/21 08:42:59;;;;;;;2.50;0.80;;;;;;;21.48;27.92;96458.91;5093918;28;20698;-66
2022/09/21 08:45:34;;;;;;;0.90;0.60;;;;;;;21.07;29.15;96452.44;5093796;28;20056;-66
2022/09/21 08:48:05;;;;;;;1.27;0.90;;;;;;;21.26;31.58;96458.06;5093809;28;20105;-66
2022/09/21 08:50:37;;;;;;;0.63;0.63;;;;;;;21.31;28.92;96443.41;5093966;28;20071;-66
2022/09/21 08:53:08;;;;;;;1.10;0.60;;;;;;;21.38;29.30;96449.06;5093571;28;20040;-66
2022/09/21 08:55:39;;;;;;;1.08;0.60;;;;;;;21.44;30.53;96445.91;5093559;28;20044;-66
2022/09/21 08:58:22;;;;;;;5.53;0.70;;;;;;;21.69;29.36;96437.63;5093541;28;20072;-66
2022/09/21 09:00:58;;;;;;;0.55;0.55;;;;;;;21.73;29.81;96432.91;5093517;28;20055;-66
2022/09/21 09:03:53;;;;;;;1.90;0.60;;;;;;;21.80;29.29;96434.94;5093406;28;20044;-66
2022/09/21 09:06:32;;;;;;;1.75;0.90;;;;;;;21.54;29.66;96432.66;5093410;28;20413;-66
2022/09/21 09:09:11;;;;;;;0.85;0.50;;;;;;;21.38;29.96;96432.25;5092943;28;20044;-66
2022/09/21 09:11:55;;;;;;;0.53;0.53;;;;;;;21.09;30.12;96439.03;5093344;28;20500;-66
2022/09/21 09:14:43;;;;;;;1.05;0.80;;;;;;;20.74;30.06;96429.44;5093223;28;20075;-66
2022/09/21 09:17:27;;;;;;;0.43;0.43;;;;;;;20.58;31.64;96433.34;5093300;28;20055;-66
2022/09/21 09:20:02;;;;;;;3.00;0.63;;;;;;;20.12;33.36;96437.84;5093280;28;20048;-66
2022/09/21 09:22:34;;;;;;;3.53;0.60;;;;;;;19.86;32.45;96432.75;5093004;28;20048;-66
2022/09/21 09:25:06;;;;;;;0.70;0.65;;;;;;;19.85;32.98;96423.94;5093268;28;20048;-66
2022/09/21 09:27:39;;;;;;;0.80;0.80;;;;;;;19.79;33.69;96429.72;5093277;28;20044;-66
2022/09/21 09:30:17;;;;;;;0.70;0.60;;;;;;;19.85;33.55;96426.59;5093236;28;20050;-66
2022/09/21 09:32:52;;;;;;;1.90;0.80;;;;;;;19.82;33.59;96425.03;5092920;28;20059;-66
2022/09/21 09:35:26;;;;;;;3.22;0.57;;;;;;;19.84;33.24;96419.59;5093118;28;20414;-66
2022/09/21 09:37:58;;;;;;;0.68;0.50;;;;;;;19.84;32.86;96414.28;5093233;28;20048;-66
2022/09/21 09:40:41;;;;;;;0.60;0.55;;;;;;;19.88;34.21;96425.50;5093058;28;20048;-66
2022/09/21 09:43:18;;;;;;;2.42;0.60;;;;;;;19.90;32.56;96420.94;5093036;28;20054;-66
2022/09/21 09:45:55;;;;;;;1.20;0.70;;;;;;;19.80;33.20;96416.31;5093402;28;20044;-66
2022/09/21 09:48:47;;;;;;;0.90;0.50;;;;;;;19.50;35.44;96416.91;5093125;28;20044;-66
2022/09/21 09:51:14;;;;;;;0.93;0.70;;;;;;;19.42;36.26;96425.44;5092731;28;20093;-66
2022/09/21 09:53:42;;;;;;;3.15;0.68;;;;;;;19.11;35.57;96423.28;5092459;28;20476;-66
2022/09/21 09:56:11;;;;;;;1.27;0.80;;;;;;;19.15;35.97;96410.66;5092834;28;20044;-66
2022/09/21 09:58:45;;;;;;;1.40;0.70;;;;;;;19.18;35.80;96413.06;5093030;28;20083;-66
2022/09/21 10:01:37;;;;;;;0.52;0.50;;;;;;;19.27;35.90;96414.19;5092748;28;20105;-66
2022/09/21 10:04:06;;;;;;;1.10;0.60;;;;;;;19.22;34.38;96414.53;5093316;28;20044;-66
2022/09/21 10:06:34;;;;;;;2.25;0.90;;;;;;;19.27;34.37;96412.34;5093207;28;20553;-66
2022/09/21 10:09:01;;;;;;;2.75;0.70;;;;;;;19.24;32.79;96412.63;5092833;28;20048;-66
2022/09/21 10:11:37;;;;;;;2.00;0.82;;;;;;;19.08;33.52;96412.91;5092983;28;20044;-66
2022/09/21 10:14:18;;;;;;;1.33;0.70;;;;;;;18.87;34.54;96416.16;5092630;28;20087;-66
2022/09/21 10:16:45;;;;;;;1.83;0.60;;;;;;;18.66;35.01;96424.72;5092631;28;20555;-66
2022/09/21 10:19:19;;;;;;;0.50;0.40;;;;;;;18.66;34.92;96418.59;5094472;28;20161;-66
2022/09/21 10:21:47;;;;;;;3.25;0.60;;;;;;;18.65;35.08;96420.38;5096454;28;20055;-66
2022/09/21 10:24:21;;;;;;;0.73;0.60;;;;;;;18.51;34.40;96416.09;5096418;28;20062;-66
2022/09/21 10:26:49;;;;;;;2.20;0.60;;;;;;;18.50;35.24;96421.50;5096421;28;20138;-66
2022/09/21 10:29:28;;;;;;;3.60;0.60;;;;;;;18.52;35.97;96417.81;5096419;28;20048;-66
2022/09/21 10:31:57;;;;;;;1.33;0.50;;;;;;;18.50;35.81;96418.84;5096291;28;20051;-66
2022/09/21 10:34:26;;;;;;;0.75;0.65;;;;;;;18.52;36.17;96417.81;5096321;28;20425;-66
2022/09/21 10:36:55;;;;;;;1.23;0.57;;;;;;;18.58;35.58;96423.59;5096148;28;20097;-66
2022/09/21 10:39:25;;;;;;;0.88;0.60;;;;;;;18.64;37.30;96420.50;5096302;28;20447;-66
2022/09/21 10:41:58;;;;;;;2.75;0.52;;;;;;;18.71;36.37;96413.78;5096069;28;20079;-66
2022/09/21 10:44:33;;;;;;;0.93;0.50;;;;;;;18.78;35.01;96409.72;5096244;28;20070;-66
2022/09/21 10:47:13;;;;;;;1.30;0.70;;;;;;;18.85;35.84;96409.28;5096068;28;20490;-66
2022/09/21 10:49:46;;;;;;;0.73;0.68;;;;;;;18.95;35.17;96407.66;5096098;28;20444;-66
2022/09/21 10:52:13;;;;;;;0.88;0.65;;;;;;;19.01;35.63;96411.63;5096178;28;20051;-66
2022/09/21 10:54:42;;;;;;;1.23;0.60;;;;;;;19.10;34.00;96412.78;5095929;28;20134;-66
2022/09/21 10:57:16;;;;;;;0.77;0.50;;;;;;;19.12;32.92;96400.28;5095939;28;20501;-66
2022/09/21 10:59:45;;;;;;;0.68;0.60;;;;;;;19.20;33.90;96395.22;5095887;28;20048;-66
2022/09/21 11:02:30;;;;;;;1.20;0.60;;;;;;;19.36;34.66;96397.59;5095765;28;20092;-66
2022/09/21 11:05:02;;;;;;;1.33;0.55;;;;;;;19.43;34.08;96393.50;5087756;28;20044;-66
2022/09/21 11:07:35;;;;;;;1.15;0.60;;;;;;;19.52;34.76;96401.69;5095790;28;20491;-66
2022/09/21 11:10:12;;;;;;;0.70;0.60;;;;;;;19.37;33.95;96387.81;5095445;28;20510;-66
2022/09/21 11:12:52;;;;;;;0.40;0.40;;;;;;;19.28;35.33;96397.31;5095492;28;20079;-66
2022/09/21 11:15:32;;;;;;;0.80;0.60;;;;;;;19.23;34.93;96400.28;5095206;28;20048;-66
2022/09/21 11:18:05;;;;;;;0.80;0.68;;;;;;;19.06;35.05;96406.84;5095382;28;20494;-66
2022/09/21 11:20:39;;;;;;;0.60;0.60;;;;;;;18.78;36.55;96415.03;5095355;28;20444;-66
2022/09/21 11:23:17;;;;;;;2.15;0.70;;;;;;;18.52;35.90;96416.94;5095400;28;20493;-66
2022/09/21 11:25:53;;;;;;;0.95;0.50;;;;;;;18.19;37.33;96419.25;5095386;28;20044;-66
2022/09/21 11:28:27;;;;;;;0.80;0.68;;;;;;;17.89;38.10;96428.38;5095198;28;20101;-66
2022/09/21 11:31:12;;;;;;;0.50;0.50;;;;;;;17.43;38.70;96412.91;5094433;28;20131;-66
2022/09/21 11:33:55;;;;;;;1.35;0.80;;;;;;;17.03;39.58;96426.97;5095243;28;20054;-65
2022/09/21 11:36:29;;;;;;;0.60;0.60;;;;;;;16.73;40.59;96422.75;5095085;28;20091;-66
2022/09/21 11:39:03;;;;;;;2.70;0.90;;;;;;;16.60;41.73;96425.34;5095288;28;20551;-66
2022/09/21 11:41:50;;;;;;;0.60;0.60;;;;;;;16.61;42.01;96427.03;5095112;28;20051;-66
2022/09/21 11:44:31;;;;;;;1.40;0.95;;;;;;;16.38;41.97;96421.41;5095014;28;20131;-66
2022/09/21 11:47:25;;;;;;;16.00;11.55;;;;;;;16.33;42.36;96420.88;5094883;28;20093;-65
2022/09/21 11:50:09;;;;;;;6.30;4.28;;;;;;;16.26;41.43;96411.66;5094883;28;20144;-65
2022/09/21 11:52:50;;;;;;;1.40;1.30;;;;;;;16.14;41.88;96410.63;5094930;28;20052;-67
2022/09/21 11:55:35;;;;;;;0.47;0.40;;;;;;;16.08;41.93;96403.97;5094939;28;20052;-67
2022/09/21 11:58:09;;;;;;;0.60;0.60;;;;;;;16.04;43.22;96395.38;5094629;28;20048;-66
2022/09/21 12:00:48;;;;;;;1.08;0.65;;;;;;;16.12;45.20;96402.81;5094538;28;20040;-67
2022/09/21 12:03:38;;;;;;;2.95;0.60;;;;;;;16.04;45.45;96399.78;5094447;28;20101;-67